KLMO

Vance Brand Airport

Longmont, Colorado, USA
METAR KLMO 240135Z AUTO 35005KT 10SM SCT120 23/10 A2995 RMK AO2 T02310098
Observed Flight Rules
May-24 @ 01:35 UTC (17 minutes ago) Visual Flight Rules
Wind Visibility Clouds
350° at 5 knots 10 miles
  • Scattered at 12,000' AGL
Temperatures Readings
Current 23°C / 73°F
Dewpoint 10°C / 50°F
Humidity 44%
Altimeter 29.95" Hg
Pressure 1014 hPa
Elevation 1541
METAR KLMO 240135Z AUTO 35005KT 10SM SCT120 23/10 A2995 RMK AO2 T02310098
Observed Flight Rules
May-24 @ 01:35 UTC
(17 minutes ago)
VFR
Wind Visibility
350° at 5 knots 10 miles
Clouds
  • Scattered at 12,000' AGL
Temperature Dewpoint
23°C / 73°F 10°C / 50°F
Humidity Altimeter Pressure
44% 29.95" Hg 1014 hPa